sensor_id;sensor_type;location;lat;lon;timestamp;temperature;humidity
51801;DHT22;37855;53.204;6.568;2023-03-21T00:00:59;9.30;81.90
51801;DHT22;37855;53.204;6.568;2023-03-21T00:03:28;9.30;81.90
51801;DHT22;37855;53.204;6.568;2023-03-21T00:05:55;9.30;82.00
51801;DHT22;37855;53.204;6.568;2023-03-21T00:08:23;9.30;81.90
51801;DHT22;37855;53.204;6.568;2023-03-21T00:11:01;9.30;82.00
51801;DHT22;37855;53.204;6.568;2023-03-21T00:13:29;9.30;81.90
51801;DHT22;37855;53.204;6.568;2023-03-21T00:16:10;9.30;82.00
51801;DHT22;37855;53.204;6.568;2023-03-21T00:18:41;9.30;81.90
51801;DHT22;37855;53.204;6.568;2023-03-21T00:21:11;9.30;81.90
51801;DHT22;37855;53.204;6.568;2023-03-21T00:23:38;9.30;82.00
51801;DHT22;37855;53.204;6.568;2023-03-21T00:26:04;9.30;81.90
51801;DHT22;37855;53.204;6.568;2023-03-21T00:28:30;9.30;81.90
51801;DHT22;37855;53.204;6.568;2023-03-21T00:30:59;9.30;82.00
51801;DHT22;37855;53.204;6.568;2023-03-21T00:33:26;9.30;82.00
51801;DHT22;37855;53.204;6.568;2023-03-21T00:35:52;9.30;81.90
51801;DHT22;37855;53.204;6.568;2023-03-21T00:38:20;9.30;81.90
51801;DHT22;37855;53.204;6.568;2023-03-21T00:40:46;9.30;82.00
51801;DHT22;37855;53.204;6.568;2023-03-21T00:43:12;9.30;81.90
51801;DHT22;37855;53.204;6.568;2023-03-21T00:45:45;9.30;82.00
51801;DHT22;37855;53.204;6.568;2023-03-21T00:48:12;9.30;82.00
51801;DHT22;37855;53.204;6.568;2023-03-21T00:50:38;9.30;82.10
51801;DHT22;37855;53.204;6.568;2023-03-21T00:53:05;9.30;82.00
51801;DHT22;37855;53.204;6.568;2023-03-21T00:55:31;9.30;82.00
51801;DHT22;37855;53.204;6.568;2023-03-21T00:57:57;9.30;82.00
51801;DHT22;37855;53.204;6.568;2023-03-21T01:00:23;9.30;82.00
51801;DHT22;37855;53.204;6.568;2023-03-21T01:02:49;9.30;82.20
51801;DHT22;37855;53.204;6.568;2023-03-21T01:05:26;9.30;82.20
51801;DHT22;37855;53.204;6.568;2023-03-21T01:08:11;9.30;82.10
51801;DHT22;37855;53.204;6.568;2023-03-21T01:10:43;9.30;82.10
51801;DHT22;37855;53.204;6.568;2023-03-21T01:13:10;9.30;82.20
51801;DHT22;37855;53.204;6.568;2023-03-21T01:15:41;9.30;82.20
51801;DHT22;37855;53.204;6.568;2023-03-21T01:18:07;9.30;82.40
51801;DHT22;37855;53.204;6.568;2023-03-21T01:20:33;9.30;82.30
51801;DHT22;37855;53.204;6.568;2023-03-21T01:22:59;9.30;82.30
51801;DHT22;37855;53.204;6.568;2023-03-21T01:25:25;9.30;82.30
51801;DHT22;37855;53.204;6.568;2023-03-21T01:27:51;9.30;82.30
51801;DHT22;37855;53.204;6.568;2023-03-21T01:30:19;9.30;82.40
51801;DHT22;37855;53.204;6.568;2023-03-21T01:32:45;9.30;82.50
51801;DHT22;37855;53.204;6.568;2023-03-21T01:35:11;9.20;82.50
51801;DHT22;37855;53.204;6.568;2023-03-21T01:37:37;9.30;82.60
51801;DHT22;37855;53.204;6.568;2023-03-21T01:40:03;9.20;82.50
51801;DHT22;37855;53.204;6.568;2023-03-21T01:42:31;9.20;82.60
51801;DHT22;37855;53.204;6.568;2023-03-21T01:44:59;9.30;82.60
51801;DHT22;37855;53.204;6.568;2023-03-21T01:47:25;9.20;82.60
51801;DHT22;37855;53.204;6.568;2023-03-21T01:49:57;9.20;82.60
51801;DHT22;37855;53.204;6.568;2023-03-21T01:52:35;9.30;82.50
51801;DHT22;37855;53.204;6.568;2023-03-21T01:55:09;9.30;82.60
51801;DHT22;37855;53.204;6.568;2023-03-21T01:57:46;9.30;82.60
51801;DHT22;37855;53.204;6.568;2023-03-21T02:00:15;9.30;82.60
51801;DHT22;37855;53.204;6.568;2023-03-21T02:03:00;9.30;82.50
51801;DHT22;37855;53.204;6.568;2023-03-21T02:05:39;9.30;82.50
51801;DHT22;37855;53.204;6.568;2023-03-21T02:08:07;9.30;82.40
51801;DHT22;37855;53.204;6.568;2023-03-21T02:10:36;9.30;82.50
51801;DHT22;37855;53.204;6.568;2023-03-21T02:13:05;9.30;82.50
51801;DHT22;37855;53.204;6.568;2023-03-21T02:15:38;9.30;82.50
51801;DHT22;37855;53.204;6.568;2023-03-21T02:18:19;9.30;82.50
51801;DHT22;37855;53.204;6.568;2023-03-21T02:23:57;9.30;82.40
51801;DHT22;37855;53.204;6.568;2023-03-21T02:27:07;9.30;82.50
51801;DHT22;37855;53.204;6.568;2023-03-21T02:38:28;9.30;82.40
51801;DHT22;37855;53.204;6.568;2023-03-21T02:46:42;9.30;82.40
51801;DHT22;37855;53.204;6.568;2023-03-21T02:49:16;9.30;82.50
51801;DHT22;37855;53.204;6.568;2023-03-21T02:51:45;9.30;82.40
51801;DHT22;37855;53.204;6.568;2023-03-21T02:54:16;9.30;82.40
51801;DHT22;37855;53.204;6.568;2023-03-21T02:56:52;9.40;82.40
51801;DHT22;37855;53.204;6.568;2023-03-21T02:59:21;9.40;82.50
51801;DHT22;37855;53.204;6.568;2023-03-21T03:01:50;9.40;82.40
51801;DHT22;37855;53.204;6.568;2023-03-21T03:04:22;9.40;82.40
51801;DHT22;37855;53.204;6.568;2023-03-21T03:13:14;9.40;82.40
51801;DHT22;37855;53.204;6.568;2023-03-21T03:21:09;9.40;82.30
51801;DHT22;37855;53.204;6.568;2023-03-21T03:23:58;9.40;82.20
51801;DHT22;37855;53.204;6.568;2023-03-21T03:26:45;9.40;82.20
51801;DHT22;37855;53.204;6.568;2023-03-21T03:29:15;9.40;82.20
51801;DHT22;37855;53.204;6.568;2023-03-21T03:31:50;9.40;82.20
51801;DHT22;37855;53.204;6.568;2023-03-21T03:34:25;9.40;82.30
51801;DHT22;37855;53.204;6.568;2023-03-21T03:36:55;9.40;82.20
51801;DHT22;37855;53.204;6.568;2023-03-21T03:39:28;9.40;82.20
51801;DHT22;37855;53.204;6.568;2023-03-21T03:42:01;9.40;82.20
51801;DHT22;37855;53.204;6.568;2023-03-21T03:44:29;9.40;82.20
51801;DHT22;37855;53.204;6.568;2023-03-21T03:47:00;9.40;82.10
51801;DHT22;37855;53.204;6.568;2023-03-21T03:49:32;9.40;82.10
51801;DHT22;37855;53.204;6.568;2023-03-21T03:52:05;9.40;82.10
51801;DHT22;37855;53.204;6.568;2023-03-21T03:54:39;9.40;82.20
51801;DHT22;37855;53.204;6.568;2023-03-21T03:57:07;9.40;82.10
51801;DHT22;37855;53.204;6.568;2023-03-21T03:59:42;9.40;82.10
51801;DHT22;37855;53.204;6.568;2023-03-21T04:02:08;9.40;82.10
51801;DHT22;37855;53.204;6.568;2023-03-21T04:04:34;9.40;82.10
51801;DHT22;37855;53.204;6.568;2023-03-21T04:07:01;9.40;82.10
51801;DHT22;37855;53.204;6.568;2023-03-21T04:09:28;9.40;82.10
51801;DHT22;37855;53.204;6.568;2023-03-21T04:11:55;9.50;82.00
51801;DHT22;37855;53.204;6.568;2023-03-21T04:14:22;9.40;82.10
51801;DHT22;37855;53.204;6.568;2023-03-21T04:16:48;9.40;82.10
51801;DHT22;37855;53.204;6.568;2023-03-21T04:19:15;9.40;82.10
51801;DHT22;37855;53.204;6.568;2023-03-21T04:21:41;9.50;82.10
51801;DHT22;37855;53.204;6.568;2023-03-21T04:24:07;9.50;82.20
51801;DHT22;37855;53.204;6.568;2023-03-21T04:26:36;9.50;82.10
51801;DHT22;37855;53.204;6.568;2023-03-21T04:29:05;9.50;82.10
51801;DHT22;37855;53.204;6.568;2023-03-21T04:31:32;9.50;82.10
51801;DHT22;37855;53.204;6.568;2023-03-21T04:34:03;9.50;82.10
51801;DHT22;37855;53.204;6.568;2023-03-21T04:36:34;9.50;82.00
51801;DHT22;37855;53.204;6.568;2023-03-21T04:39:07;9.50;82.10
51801;DHT22;37855;53.204;6.568;2023-03-21T04:41:40;9.50;82.10
51801;DHT22;37855;53.204;6.568;2023-03-21T04:44:06;9.50;82.10
51801;DHT22;37855;53.204;6.568;2023-03-21T04:46:33;9.50;82.10
51801;DHT22;37855;53.204;6.568;2023-03-21T04:48:59;9.50;82.10
51801;DHT22;37855;53.204;6.568;2023-03-21T04:51:25;9.50;82.10
51801;DHT22;37855;53.204;6.568;2023-03-21T04:53:54;9.50;82.10
51801;DHT22;37855;53.204;6.568;2023-03-21T04:56:25;9.50;82.10
51801;DHT22;37855;53.204;6.568;2023-03-21T04:58:57;9.50;82.10
51801;DHT22;37855;53.204;6.568;2023-03-21T05:01:26;9.50;82.00
51801;DHT22;37855;53.204;6.568;2023-03-21T05:03:58;9.50;82.10
51801;DHT22;37855;53.204;6.568;2023-03-21T05:06:24;9.50;82.10
51801;DHT22;37855;53.204;6.568;2023-03-21T05:08:50;9.50;82.10
51801;DHT22;37855;53.204;6.568;2023-03-21T05:11:16;9.50;82.10
51801;DHT22;37855;53.204;6.568;2023-03-21T05:13:42;9.50;82.20
51801;DHT22;37855;53.204;6.568;2023-03-21T05:16:08;9.50;82.10
51801;DHT22;37855;53.204;6.568;2023-03-21T05:18:34;9.50;82.20
51801;DHT22;37855;53.204;6.568;2023-03-21T05:21:03;9.40;82.20
51801;DHT22;37855;53.204;6.568;2023-03-21T05:23:32;9.50;82.20
51801;DHT22;37855;53.204;6.568;2023-03-21T05:26:05;9.40;82.20
51801;DHT22;37855;53.204;6.568;2023-03-21T05:28:34;9.40;82.30
51801;DHT22;37855;53.204;6.568;2023-03-21T05:31:05;9.40;82.30
51801;DHT22;37855;53.204;6.568;2023-03-21T05:33:31;9.40;82.30
51801;DHT22;37855;53.204;6.568;2023-03-21T05:35:57;9.50;82.30
51801;DHT22;37855;53.204;6.568;2023-03-21T05:38:26;9.50;82.30
51801;DHT22;37855;53.204;6.568;2023-03-21T05:40:57;9.50;82.30
51801;DHT22;37855;53.204;6.568;2023-03-21T05:43:44;9.50;82.30
51801;DHT22;37855;53.204;6.568;2023-03-21T05:46:22;9.50;82.40
51801;DHT22;37855;53.204;6.568;2023-03-21T05:49:45;9.40;82.40
51801;DHT22;37855;53.204;6.568;2023-03-21T05:52:27;9.50;82.40
51801;DHT22;37855;53.204;6.568;2023-03-21T05:55:23;9.50;82.50
51801;DHT22;37855;53.204;6.568;2023-03-21T05:57:52;9.50;82.40
51801;DHT22;37855;53.204;6.568;2023-03-21T06:00:18;9.50;82.40
51801;DHT22;37855;53.204;6.568;2023-03-21T06:02:46;9.50;82.40
51801;DHT22;37855;53.204;6.568;2023-03-21T06:05:12;9.50;82.50
51801;DHT22;37855;53.204;6.568;2023-03-21T06:07:43;9.50;82.50
51801;DHT22;37855;53.204;6.568;2023-03-21T06:10:09;9.50;82.40
51801;DHT22;37855;53.204;6.568;2023-03-21T06:12:35;9.50;82.50
51801;DHT22;37855;53.204;6.568;2023-03-21T06:15:04;9.50;82.50
51801;DHT22;37855;53.204;6.568;2023-03-21T06:17:31;9.50;82.50
51801;DHT22;37855;53.204;6.568;2023-03-21T06:19:57;9.50;82.50
51801;DHT22;37855;53.204;6.568;2023-03-21T06:22:26;9.50;82.50
51801;DHT22;37855;53.204;6.568;2023-03-21T06:24:54;9.60;82.50
51801;DHT22;37855;53.204;6.568;2023-03-21T06:27:23;9.50;82.50
51801;DHT22;37855;53.204;6.568;2023-03-21T06:29:52;9.60;82.50
51801;DHT22;37855;53.204;6.568;2023-03-21T06:32:18;9.60;82.50
51801;DHT22;37855;53.204;6.568;2023-03-21T06:34:44;9.60;82.40
51801;DHT22;37855;53.204;6.568;2023-03-21T06:37:09;9.60;82.40
51801;DHT22;37855;53.204;6.568;2023-03-21T06:39:35;9.60;82.40
51801;DHT22;37855;53.204;6.568;2023-03-21T06:42:07;9.60;82.40
51801;DHT22;37855;53.204;6.568;2023-03-21T06:44:33;9.60;82.30
51801;DHT22;37855;53.204;6.568;2023-03-21T06:47:08;9.60;82.30
51801;DHT22;37855;53.204;6.568;2023-03-21T06:49:33;9.60;82.30
51801;DHT22;37855;53.204;6.568;2023-03-21T06:51:59;9.70;82.30
51801;DHT22;37855;53.204;6.568;2023-03-21T06:54:34;9.70;82.30
51801;DHT22;37855;53.204;6.568;2023-03-21T06:57:01;9.70;82.30
51801;DHT22;37855;53.204;6.568;2023-03-21T06:59:27;9.70;82.40
51801;DHT22;37855;53.204;6.568;2023-03-21T07:01:55;9.60;82.40
51801;DHT22;37855;53.204;6.568;2023-03-21T07:04:21;9.60;82.30
51801;DHT22;37855;53.204;6.568;2023-03-21T07:06:47;9.70;82.40
51801;DHT22;37855;53.204;6.568;2023-03-21T07:09:13;9.70;82.30
51801;DHT22;37855;53.204;6.568;2023-03-21T07:11:42;9.70;82.40
51801;DHT22;37855;53.204;6.568;2023-03-21T07:14:07;9.70;82.30
51801;DHT22;37855;53.204;6.568;2023-03-21T07:16:33;9.80;82.30
51801;DHT22;37855;53.204;6.568;2023-03-21T07:18:59;9.80;82.30
51801;DHT22;37855;53.204;6.568;2023-03-21T07:21:26;9.80;82.30
51801;DHT22;37855;53.204;6.568;2023-03-21T07:23:52;9.80;82.30
51801;DHT22;37855;53.204;6.568;2023-03-21T07:26:17;9.80;82.30
51801;DHT22;37855;53.204;6.568;2023-03-21T07:31:19;9.80;82.20
51801;DHT22;37855;53.204;6.568;2023-03-21T07:33:44;9.90;82.20
51801;DHT22;37855;53.204;6.568;2023-03-21T07:36:14;9.90;82.30
51801;DHT22;37855;53.204;6.568;2023-03-21T07:38:42;9.90;82.20
51801;DHT22;37855;53.204;6.568;2023-03-21T07:41:08;9.90;82.30
51801;DHT22;37855;53.204;6.568;2023-03-21T07:43:34;9.90;82.30
51801;DHT22;37855;53.204;6.568;2023-03-21T07:46:00;9.90;82.20
51801;DHT22;37855;53.204;6.568;2023-03-21T07:48:27;10.00;82.30
51801;DHT22;37855;53.204;6.568;2023-03-21T07:50:56;9.90;82.10
51801;DHT22;37855;53.204;6.568;2023-03-21T07:53:22;9.90;82.10
51801;DHT22;37855;53.204;6.568;2023-03-21T07:55:52;9.90;82.10
51801;DHT22;37855;53.204;6.568;2023-03-21T07:58:20;9.90;82.10
51801;DHT22;37855;53.204;6.568;2023-03-21T08:00:46;9.90;82.10
51801;DHT22;37855;53.204;6.568;2023-03-21T08:03:45;9.90;82.10
51801;DHT22;37855;53.204;6.568;2023-03-21T08:06:23;10.00;82.10
51801;DHT22;37855;53.204;6.568;2023-03-21T08:09:06;10.00;82.10
51801;DHT22;37855;53.204;6.568;2023-03-21T08:11:32;10.00;82.00
51801;DHT22;37855;53.204;6.568;2023-03-21T08:13:59;10.00;81.90
51801;DHT22;37855;53.204;6.568;2023-03-21T08:16:25;10.00;81.90
51801;DHT22;37855;53.204;6.568;2023-03-21T08:18:54;10.00;81.90
51801;DHT22;37855;53.204;6.568;2023-03-21T08:21:19;10.00;81.90
51801;DHT22;37855;53.204;6.568;2023-03-21T08:23:45;10.00;81.90
51801;DHT22;37855;53.204;6.568;2023-03-21T08:26:11;10.00;81.80
51801;DHT22;37855;53.204;6.568;2023-03-21T08:28:43;10.00;81.80
51801;DHT22;37855;53.204;6.568;2023-03-21T08:33:58;10.10;81.80
51801;DHT22;37855;53.204;6.568;2023-03-21T08:36:24;10.10;81.70
51801;DHT22;37855;53.204;6.568;2023-03-21T08:38:52;10.10;81.80
51801;DHT22;37855;53.204;6.568;2023-03-21T08:41:26;10.10;81.80
51801;DHT22;37855;53.204;6.568;2023-03-21T08:43:58;10.10;81.80
51801;DHT22;37855;53.204;6.568;2023-03-21T08:46:45;10.10;81.80
51801;DHT22;37855;53.204;6.568;2023-03-21T08:49:11;10.10;81.80
51801;DHT22;37855;53.204;6.568;2023-03-21T08:51:37;10.10;81.80
51801;DHT22;37855;53.204;6.568;2023-03-21T08:54:02;10.10;81.70
51801;DHT22;37855;53.204;6.568;2023-03-21T08:56:28;10.10;81.70
51801;DHT22;37855;53.204;6.568;2023-03-21T08:58:57;10.10;81.70
51801;DHT22;37855;53.204;6.568;2023-03-21T09:01:27;10.10;81.70
51801;DHT22;37855;53.204;6.568;2023-03-21T09:03:53;10.10;81.60
51801;DHT22;37855;53.204;6.568;2023-03-21T09:06:19;10.10;81.60
51801;DHT22;37855;53.204;6.568;2023-03-21T09:08:45;10.10;81.60
51801;DHT22;37855;53.204;6.568;2023-03-21T09:11:11;10.10;81.60
51801;DHT22;37855;53.204;6.568;2023-03-21T09:13:42;10.10;81.60
51801;DHT22;37855;53.204;6.568;2023-03-21T09:16:08;10.10;81.60
51801;DHT22;37855;53.204;6.568;2023-03-21T09:23:45;10.20;81.30
51801;DHT22;37855;53.204;6.568;2023-03-21T09:26:11;10.20;81.30
51801;DHT22;37855;53.204;6.568;2023-03-21T09:28:38;10.20;81.10
51801;DHT22;37855;53.204;6.568;2023-03-21T09:31:05;10.20;81.00
51801;DHT22;37855;53.204;6.568;2023-03-21T09:33:34;10.20;81.00
51801;DHT22;37855;53.204;6.568;2023-03-21T09:36:00;10.20;81.00
51801;DHT22;37855;53.204;6.568;2023-03-21T09:38:41;10.10;81.00
51801;DHT22;37855;53.204;6.568;2023-03-21T09:55:24;10.20;81.00
51801;DHT22;37855;53.204;6.568;2023-03-21T09:58:14;10.20;80.90
51801;DHT22;37855;53.204;6.568;2023-03-21T10:00:49;10.20;80.90
51801;DHT22;37855;53.204;6.568;2023-03-21T10:05:58;10.20;80.70
51801;DHT22;37855;53.204;6.568;2023-03-21T10:08:49;10.20;80.90
51801;DHT22;37855;53.204;6.568;2023-03-21T10:11:21;10.20;80.90
51801;DHT22;37855;53.204;6.568;2023-03-21T10:16:33;10.30;80.80
51801;DHT22;37855;53.204;6.568;2023-03-21T10:19:09;10.30;80.70
51801;DHT22;37855;53.204;6.568;2023-03-21T10:21:40;10.30;80.70
51801;DHT22;37855;53.204;6.568;2023-03-21T10:24:48;10.30;80.60
51801;DHT22;37855;53.204;6.568;2023-03-21T10:27:17;10.30;80.50
51801;DHT22;37855;53.204;6.568;2023-03-21T10:33:13;10.30;80.40
51801;DHT22;37855;53.204;6.568;2023-03-21T10:35:42;10.30;80.40
51801;DHT22;37855;53.204;6.568;2023-03-21T10:44:21;10.30;80.40
51801;DHT22;37855;53.204;6.568;2023-03-21T10:46:55;10.30;80.20
51801;DHT22;37855;53.204;6.568;2023-03-21T10:49:21;10.40;80.40
51801;DHT22;37855;53.204;6.568;2023-03-21T10:51:50;10.40;80.40
51801;DHT22;37855;53.204;6.568;2023-03-21T10:54:23;10.50;80.20
51801;DHT22;37855;53.204;6.568;2023-03-21T10:56:57;10.50;80.20
51801;DHT22;37855;53.204;6.568;2023-03-21T10:59:27;10.50;80.20
51801;DHT22;37855;53.204;6.568;2023-03-21T11:01:59;10.60;80.00
51801;DHT22;37855;53.204;6.568;2023-03-21T11:04:28;10.60;80.10
51801;DHT22;37855;53.204;6.568;2023-03-21T11:07:00;10.70;80.10
51801;DHT22;37855;53.204;6.568;2023-03-21T11:09:49;10.70;80.10
51801;DHT22;37855;53.204;6.568;2023-03-21T11:12:37;10.80;80.00
51801;DHT22;37855;53.204;6.568;2023-03-21T11:15:29;10.90;79.90
51801;DHT22;37855;53.204;6.568;2023-03-21T11:18:01;11.00;79.90
51801;DHT22;37855;53.204;6.568;2023-03-21T11:20:43;11.10;79.80
51801;DHT22;37855;53.204;6.568;2023-03-21T11:23:19;11.20;79.70
51801;DHT22;37855;53.204;6.568;2023-03-21T11:25:48;11.20;79.10
51801;DHT22;37855;53.204;6.568;2023-03-21T11:28:22;11.30;79.10
51801;DHT22;37855;53.204;6.568;2023-03-21T11:30:56;11.30;79.00
51801;DHT22;37855;53.204;6.568;2023-03-21T11:33:27;11.40;78.70
51801;DHT22;37855;53.204;6.568;2023-03-21T11:35:59;11.40;78.80
51801;DHT22;37855;53.204;6.568;2023-03-21T11:38:37;11.50;78.80
51801;DHT22;37855;53.204;6.568;2023-03-21T11:41:06;11.50;78.60
51801;DHT22;37855;53.204;6.568;2023-03-21T11:43:39;11.60;78.30
51801;DHT22;37855;53.204;6.568;2023-03-21T11:46:12;11.60;77.90
51801;DHT22;37855;53.204;6.568;2023-03-21T11:56:24;11.60;77.80
51801;DHT22;37855;53.204;6.568;2023-03-21T11:59:23;11.60;77.10
51801;DHT22;37855;53.204;6.568;2023-03-21T12:05:26;11.70;77.40
51801;DHT22;37855;53.204;6.568;2023-03-21T12:08:00;11.80;77.50
51801;DHT22;37855;53.204;6.568;2023-03-21T12:19:15;11.80;77.20
51801;DHT22;37855;53.204;6.568;2023-03-21T12:22:12;11.80;77.30
51801;DHT22;37855;53.204;6.568;2023-03-21T12:35:53;11.70;76.60
51801;DHT22;37855;53.204;6.568;2023-03-21T12:41:27;11.60;76.50
51801;DHT22;37855;53.204;6.568;2023-03-21T12:44:19;11.60;76.50
51801;DHT22;37855;53.204;6.568;2023-03-21T12:50:58;11.50;76.30
51801;DHT22;37855;53.204;6.568;2023-03-21T12:56:05;11.50;76.30
51801;DHT22;37855;53.204;6.568;2023-03-21T12:58:45;11.40;76.10
51801;DHT22;37855;53.204;6.568;2023-03-21T13:01:14;11.40;76.00
51801;DHT22;37855;53.204;6.568;2023-03-21T13:03:43;11.40;75.90
51801;DHT22;37855;53.204;6.568;2023-03-21T13:06:18;11.50;76.00
51801;DHT22;37855;53.204;6.568;2023-03-21T13:11:29;11.60;75.90
51801;DHT22;37855;53.204;6.568;2023-03-21T13:24:23;11.90;75.60
51801;DHT22;37855;53.204;6.568;2023-03-21T13:27:46;11.90;75.30
51801;DHT22;37855;53.204;6.568;2023-03-21T13:29:50;12.00;75.10
51801;DHT22;37855;53.204;6.568;2023-03-21T13:32:24;12.10;75.10
51801;DHT22;37855;53.204;6.568;2023-03-21T13:59:43;12.20;73.60
51801;DHT22;37855;53.204;6.568;2023-03-21T14:04:40;12.20;73.60
51801;DHT22;37855;53.204;6.568;2023-03-21T14:07:19;12.10;73.80
51801;DHT22;37855;53.204;6.568;2023-03-21T14:09:55;12.10;73.90
51801;DHT22;37855;53.204;6.568;2023-03-21T14:12:28;12.10;73.80
51801;DHT22;37855;53.204;6.568;2023-03-21T14:17:58;12.20;73.50
51801;DHT22;37855;53.204;6.568;2023-03-21T14:20:41;12.20;73.30
51801;DHT22;37855;53.204;6.568;2023-03-21T14:23:13;12.40;73.20
51801;DHT22;37855;53.204;6.568;2023-03-21T14:25:40;12.60;73.00
51801;DHT22;37855;53.204;6.568;2023-03-21T14:28:17;12.70;72.40
51801;DHT22;37855;53.204;6.568;2023-03-21T14:30:59;12.90;71.60
51801;DHT22;37855;53.204;6.568;2023-03-21T14:33:34;13.00;71.50
51801;DHT22;37855;53.204;6.568;2023-03-21T14:36:08;13.10;70.80
51801;DHT22;37855;53.204;6.568;2023-03-21T14:41:42;13.20;70.30
51801;DHT22;37855;53.204;6.568;2023-03-21T14:50:53;13.00;70.10
51801;DHT22;37855;53.204;6.568;2023-03-21T14:53:35;12.90;70.10
51801;DHT22;37855;53.204;6.568;2023-03-21T14:56:09;13.00;69.90
51801;DHT22;37855;53.204;6.568;2023-03-21T14:58:40;13.00;69.90
51801;DHT22;37855;53.204;6.568;2023-03-21T15:01:20;13.10;69.70
51801;DHT22;37855;53.204;6.568;2023-03-21T15:03:54;13.10;69.60
51801;DHT22;37855;53.204;6.568;2023-03-21T15:09:03;13.00;69.50
51801;DHT22;37855;53.204;6.568;2023-03-21T15:46:46;12.40;70.30
51801;DHT22;37855;53.204;6.568;2023-03-21T15:53:19;12.40;70.60
51801;DHT22;37855;53.204;6.568;2023-03-21T16:17:00;12.20;71.20
51801;DHT22;37855;53.204;6.568;2023-03-21T16:19:26;12.20;70.90
51801;DHT22;37855;53.204;6.568;2023-03-21T16:21:54;12.20;70.80
51801;DHT22;37855;53.204;6.568;2023-03-21T16:24:19;12.20;70.80
51801;DHT22;37855;53.204;6.568;2023-03-21T16:26:49;12.10;70.80
51801;DHT22;37855;53.204;6.568;2023-03-21T16:29:19;12.10;70.50
51801;DHT22;37855;53.204;6.568;2023-03-21T16:31:47;12.00;70.70
51801;DHT22;37855;53.204;6.568;2023-03-21T16:34:13;12.00;70.60
51801;DHT22;37855;53.204;6.568;2023-03-21T16:36:44;12.00;70.80
51801;DHT22;37855;53.204;6.568;2023-03-21T16:39:16;12.00;70.80
51801;DHT22;37855;53.204;6.568;2023-03-21T16:41:42;12.00;70.80
51801;DHT22;37855;53.204;6.568;2023-03-21T16:46:49;11.90;71.40
51801;DHT22;37855;53.204;6.568;2023-03-21T16:51:46;11.70;72.80
51801;DHT22;37855;53.204;6.568;2023-03-21T16:54:15;11.70;73.30
51801;DHT22;37855;53.204;6.568;2023-03-21T16:56:45;11.60;74.10
51801;DHT22;37855;53.204;6.568;2023-03-21T16:59:12;11.50;74.90
51801;DHT22;37855;53.204;6.568;2023-03-21T17:01:38;11.40;74.90
51801;DHT22;37855;53.204;6.568;2023-03-21T17:04:06;11.40;75.30
51801;DHT22;37855;53.204;6.568;2023-03-21T17:06:37;11.30;75.90
51801;DHT22;37855;53.204;6.568;2023-03-21T17:09:03;11.30;76.20
51801;DHT22;37855;53.204;6.568;2023-03-21T17:11:31;11.20;76.50
51801;DHT22;37855;53.204;6.568;2023-03-21T17:45:05;11.10;77.60
51801;DHT22;37855;53.204;6.568;2023-03-21T17:47:31;11.10;77.60
51801;DHT22;37855;53.204;6.568;2023-03-21T17:49:57;11.10;77.70
51801;DHT22;37855;53.204;6.568;2023-03-21T17:52:23;11.10;77.80
51801;DHT22;37855;53.204;6.568;2023-03-21T17:54:52;11.10;77.90
51801;DHT22;37855;53.204;6.568;2023-03-21T17:57:17;11.00;78.10
51801;DHT22;37855;53.204;6.568;2023-03-21T17:59:43;11.00;78.00
51801;DHT22;37855;53.204;6.568;2023-03-21T18:02:14;10.90;78.50
51801;DHT22;37855;53.204;6.568;2023-03-21T18:04:46;10.90;78.40
51801;DHT22;37855;53.204;6.568;2023-03-21T18:07:15;10.90;78.30
51801;DHT22;37855;53.204;6.568;2023-03-21T18:09:41;10.90;78.30
51801;DHT22;37855;53.204;6.568;2023-03-21T18:12:19;10.90;78.30
51801;DHT22;37855;53.204;6.568;2023-03-21T18:14:46;10.90;78.40
51801;DHT22;37855;53.204;6.568;2023-03-21T18:17:21;10.80;78.20
51801;DHT22;37855;53.204;6.568;2023-03-21T18:19:47;10.80;78.20
51801;DHT22;37855;53.204;6.568;2023-03-21T18:22:13;10.80;78.30
51801;DHT22;37855;53.204;6.568;2023-03-21T18:24:38;10.80;78.20
51801;DHT22;37855;53.204;6.568;2023-03-21T18:27:04;10.80;78.40
51801;DHT22;37855;53.204;6.568;2023-03-21T18:29:31;10.80;78.30
51801;DHT22;37855;53.204;6.568;2023-03-21T18:31:57;10.70;78.30
51801;DHT22;37855;53.204;6.568;2023-03-21T18:34:28;10.70;78.30
51801;DHT22;37855;53.204;6.568;2023-03-21T18:36:55;10.70;78.50
51801;DHT22;37855;53.204;6.568;2023-03-21T18:39:21;10.70;78.60
51801;DHT22;37855;53.204;6.568;2023-03-21T18:41:47;10.70;78.50
51801;DHT22;37855;53.204;6.568;2023-03-21T18:44:13;10.70;78.60
51801;DHT22;37855;53.204;6.568;2023-03-21T18:46:41;10.70;78.80
51801;DHT22;37855;53.204;6.568;2023-03-21T18:49:13;10.70;78.80
51801;DHT22;37855;53.204;6.568;2023-03-21T18:51:39;10.70;78.90
51801;DHT22;37855;53.204;6.568;2023-03-21T18:54:06;10.70;78.90
51801;DHT22;37855;53.204;6.568;2023-03-21T18:56:32;10.70;79.00
51801;DHT22;37855;53.204;6.568;2023-03-21T18:58:59;10.70;79.00
51801;DHT22;37855;53.204;6.568;2023-03-21T19:01:25;10.70;79.10
51801;DHT22;37855;53.204;6.568;2023-03-21T19:03:51;10.70;78.90
51801;DHT22;37855;53.204;6.568;2023-03-21T19:06:23;10.60;79.00
51801;DHT22;37855;53.204;6.568;2023-03-21T19:08:52;10.60;79.00
51801;DHT22;37855;53.204;6.568;2023-03-21T19:11:17;10.60;79.00
51801;DHT22;37855;53.204;6.568;2023-03-21T19:14:05;10.60;79.00
51801;DHT22;37855;53.204;6.568;2023-03-21T19:16:32;10.60;79.10
51801;DHT22;37855;53.204;6.568;2023-03-21T19:18:58;10.60;79.10
51801;DHT22;37855;53.204;6.568;2023-03-21T19:21:32;10.60;79.10
51801;DHT22;37855;53.204;6.568;2023-03-21T19:23:58;10.60;79.20
51801;DHT22;37855;53.204;6.568;2023-03-21T19:26:31;10.60;79.20
51801;DHT22;37855;53.204;6.568;2023-03-21T19:28:59;10.60;79.30
51801;DHT22;37855;53.204;6.568;2023-03-21T19:31:24;10.60;79.30
51801;DHT22;37855;53.204;6.568;2023-03-21T19:33:52;10.60;79.30
51801;DHT22;37855;53.204;6.568;2023-03-21T19:36:22;10.60;79.30
51801;DHT22;37855;53.204;6.568;2023-03-21T19:38:50;10.60;79.30
51801;DHT22;37855;53.204;6.568;2023-03-21T19:41:17;10.50;79.40
51801;DHT22;37855;53.204;6.568;2023-03-21T19:43:43;10.60;79.30
51801;DHT22;37855;53.204;6.568;2023-03-21T19:46:08;10.60;79.30
51801;DHT22;37855;53.204;6.568;2023-03-21T19:48:39;10.60;79.30
51801;DHT22;37855;53.204;6.568;2023-03-21T19:51:07;10.50;79.40
51801;DHT22;37855;53.204;6.568;2023-03-21T19:53:33;10.50;79.30
51801;DHT22;37855;53.204;6.568;2023-03-21T19:55:59;10.50;79.30
51801;DHT22;37855;53.204;6.568;2023-03-21T19:58:25;10.50;79.30
51801;DHT22;37855;53.204;6.568;2023-03-21T20:00:53;10.50;79.30
51801;DHT22;37855;53.204;6.568;2023-03-21T20:03:18;10.60;79.20
51801;DHT22;37855;53.204;6.568;2023-03-21T20:05:47;10.50;79.10
51801;DHT22;37855;53.204;6.568;2023-03-21T20:08:13;10.50;79.10
51801;DHT22;37855;53.204;6.568;2023-03-21T20:10:43;10.50;79.00
51801;DHT22;37855;53.204;6.568;2023-03-21T20:13:09;10.50;78.90
51801;DHT22;37855;53.204;6.568;2023-03-21T20:15:35;10.50;79.00
51801;DHT22;37855;53.204;6.568;2023-03-21T20:18:02;10.50;78.80
51801;DHT22;37855;53.204;6.568;2023-03-21T20:20:27;10.50;78.60